Holyoke, CO

4:18 AM MDT on July 24, 2016 (GMT -0600)
Frenchman Heights | | Change Station

Elev 3727 ft 40.59 °N, 102.29 °W | Updated 2 seconds ago

Clear
Clear
68.2 °F
Feels Like 68.2 °F
N
3.7
Wind Variable Wind from SSE

Today
High -- | Low -- °F
--% Chance of Precip.
Yesterday
High -- | Low -- °F
Precip. -- in
Pressure 30.06 in
Visibility -9999.0 miles
Clouds Clear
Dew Point 61 °F
Humidity 79%
Rainfall 0.00 in
Snow Depth Not available.
5:39 AM 8:11 PM
Waning Gibbous, 77% visible
METAR KHEQ 241015Z AUTO 29004KT CLR 20/16 A3006 RMK AO2 LTG DSNT SE PWINO
Pressure 30.06 in
Visibility -9999.0 miles
Clouds Clear
Dew Point 61 °F
Humidity 79%
Rainfall 0.00 in
Snow Depth Not available.
5:39 AM 8:11 PM
Waning Gibbous, 77% visible
METAR KHEQ 241015Z AUTO 29004KT CLR 20/16 A3006 RMK AO2 LTG DSNT SE PWINO

10-Day Weather Forecast

Almanac

Astronomy

Jul. 24, 2016 Rise Set
Actual Time
Civil Twilight
Nautical Twilight
Astronomical Twilight
Moon
Length of Visible Light
Length of Day
Tomorrow will be .
, % of the Moon is Illuminated

Today's Extremes

State Highs State Lows

Community

WunderPhotos

Upload Photos

1,927,040 photos uploaded!

WunderBlog® & News

Nearby

Air Quality

  Air Quality AQ Index Pollutant
Not available.

Snow Depth

Station Depth Elevation

Earthquake Activity

City Distance Mag. Time & Date
Minimum magnitude displayed is 2.5.

Coastal Water Temperatures

Place Temperature

Stations

Nearby Weather Stations

Station Location Temp. Windchill Dew Point Humidity Wind Precip. Elev Updated Type
                   

Watches & Warnings

There are currently no watches in effect.